Latest Coastal Weather Observations for Cape Bruny AWS

IDT60701

Issued at 2:52 am EDT Wednesday 29 March 2017 (issued every 10 minutes, with the page automatically refreshed every 10 minutes)

About coastal observations | Map of coastal stations | Coastal observations for TAS | Marine services | Other Formats
Station Details ID: 094198 Name: CAPE BRUNY (CAPE BRUNY) Lat: -43.49 Lon: 147.14 Height: 59.7 m
Data from the previous 72 hours. | See also: Recent months at Cape Bruny AWS
Date/Time
EDT
Temp
°C
Wind Pressure Rain since
9am
mm
Weather Cloud Vis
km
Sea
Height
m
Swell
Dir  Spd
kts
Gust
kts
hPa Trend Height
m
Period
s
Dir
29/02:30am 16.5 NNW 18 26 1002.1 - 0.0 - - - - - - -
29/02:00am 16.7 NW 20 27 1002.2 - 0.0 - - - - - - -
29/01:30am 16.8 NW 19 29 1002.7 - 0.0 - - - - - - -
29/01:00am 17.0 NW 21 28 1002.8 - 0.0 - - - - - - -
29/12:50am 16.9 NW 17 27 1003.0 - 0.0 - - - - - - -
29/12:30am 16.8 NW 18 26 1003.0 - 0.0 - - - - - - -
29/12:00am 16.6 NW 21 27 1003.2 - 0.0 - - - - - - -
 
Date/Time
EDT
Temp
°C
Wind Pressure Rain since
9am
mm
Weather Cloud Vis
km
Sea
Height
m
Swell
Dir  Spd
kts
Gust
kts
hPa Trend Height
m
Period
s
Dir
28/11:30pm 16.6 NW 21 28 1003.4 - 0.0 - - - - - - -
28/11:10pm 16.9 NW 18 29 1003.6 - 0.0 - - - - - - -
28/11:00pm 16.8 NW 18 27 1003.6 - 0.0 - - - - - - -
28/10:30pm 16.7 NW 19 24 1004.1 - 0.0 - - - - - - -
28/10:00pm 16.6 NW 18 26 1004.3 - 0.0 - - - - - - -
28/09:30pm 16.3 NW 13 18 1004.6 - 0.0 - - - - - - -
28/09:00pm 16.6 NW 14 20 1004.5 - 0.0 - - - - - - -
28/08:30pm 17.0 NW 17 26 1004.4 - 0.0 - - - - - - -
28/08:00pm 17.0 NW 19 27 1004.1 - 0.0 - - - - - - -
28/07:30pm 17.0 WNW 19 26 1003.9 - 0.0 - - - - - - -
28/07:00pm 17.2 NW 20 30 1003.6 - 0.0 - - - - - - -
28/06:30pm 18.0 NW 18 26 1003.6 - 0.0 - - - - - - -
28/06:00pm 18.6 NW 22 29 1003.4 - 0.0 - - - - - - -
28/05:30pm 18.1 WNW 27 40 1003.3 - 0.0 - - - - - - -
28/05:00pm 19.1 WNW 27 37 1002.9 - 0.0 - - - - - - -
28/04:30pm 19.5 NW 27 38 1003.0 - 0.0 - - - - - - -
28/04:04pm 19.4 WNW 25 35 1003.1 - 0.0 - - - - - - -
28/04:00pm 19.1 WNW 26 35 1003.1 - 0.0 - - - - - - -
28/03:34pm 19.7 WNW 26 36 1002.9 - 0.0 - - - - - - -
28/03:30pm 20.1 WNW 27 35 1002.9 - 0.0 - - - - - - -
28/03:15pm 19.8 NW 27 40 1002.7 - 0.0 - - - - - - -
28/03:14pm 19.9 NW 27 40 1002.6 - 0.0 - - - - - - -
28/03:00pm 20.5 WNW 21 32 1003.1 - 0.0 - - - - - - -
28/02:30pm 20.6 NW 22 33 1003.0 - 0.0 - - - - - - -
28/02:05pm 20.2 NW 21 31 1003.1 - 0.0 - - - - - - -
28/02:00pm 20.2 NW 22 31 1003.1 - 0.0 - - - - - - -
28/01:30pm 19.6 WNW 27 40 1003.2 - 0.0 - - - - - - -
28/01:00pm 19.1 WNW 29 40 1003.4 - 0.0 - - - - - - -
28/12:31pm 19.7 WNW 29 43 1003.6 - 0.0 - - - - - - -
28/12:30pm 19.6 WNW 30 43 1003.6 - 0.0 - - - - - - -
28/12:28pm 19.6 WNW 29 43 1003.4 - 0.0 - - - - - - -
28/12:27pm 19.5 WNW 29 43 1003.2 - 0.0 - - - - - - -
28/12:11pm 19.3 NW 23 34 1003.7 - 0.0 - - - - - - -
28/12:00pm 19.2 NW 23 31 1003.8 - 0.0 - - - - - - -
28/11:42am 19.1 WNW 28 45 1003.6 - 0.0 - - - - - - -
28/11:30am 19.0 WNW 23 34 1004.0 - 0.0 - - - - - - -
28/11:03am 18.5 WNW 26 37 1003.9 - 0.0 - - - - - - -
28/11:00am 18.1 WNW 25 37 1003.9 - 0.0 - - - - - - -
28/10:59am 18.0 WNW 24 37 1003.8 - 0.0 - - - - - - -
28/10:31am 17.0 NW 19 29 1004.3 - 0.0 - - - - - - -
28/10:30am 17.1 NW 20 29 1004.3 - 0.0 - - - - - - -
28/10:14am 16.7 NW 15 25 1004.6 - 0.0 - - - - - - -
28/10:00am 16.4 WNW 20 27 1004.3 - 0.0 - - - - - - -
28/09:30am 16.3 WNW 25 35 1004.2 - 0.0 - - - - - - -
28/09:14am 16.2 WNW 22 32 1004.4 - 0.0 - - - - - - -
28/09:00am 16.3 WNW 21 30 1004.1 - 5.6 - - - - - - -
28/08:33am 16.1 WNW 20 30 1003.9 - 5.6 - - - - - - -
28/08:30am 16.1 WNW 19 25 1004.0 - 5.6 - - - - - - -
28/08:02am 16.1 WNW 18 28 1004.0 - 5.6 - - - - - - -
28/08:00am 16.1 WNW 20 29 1004.0 - 5.6 - - - - - - -
28/07:31am 15.9 WNW 22 32 1003.6 - 5.6 - - - - - - -
28/07:30am 16.0 WNW 23 32 1003.6 - 5.6 - - - - - - -
28/07:00am 16.0 WNW 21 28 1003.6 - 5.6 - - - - - - -
28/06:30am 15.8 NW 17 27 1003.4 - 5.6 - - - - - - -
28/06:03am 16.2 NW 19 30 1003.1 - 5.6 - - - - - - -
28/06:00am 16.1 NW 17 23 1003.1 - 5.6 - - - - - - -
28/05:30am 15.9 WNW 15 22 1002.8 - 5.6 - - - - - - -
28/05:00am 15.9 WNW 21 28 1002.5 - 5.6 - - - - - - -
28/04:30am 16.1 NW 16 24 1002.5 - 5.6 - - - - - - -
28/04:00am 16.1 NW 14 22 1002.4 - 5.6 - - - - - - -
28/03:30am 16.0 NW 17 25 1002.2 - 5.6 - - - - - - -
28/03:09am 15.9 NW 16 26 1001.8 - 5.6 - - - - - - -
28/03:00am 15.7 NW 11 19 1002.0 - 5.6 - - - - - - -
28/02:30am 14.9 NNW 7 14 1002.0 - 5.6 - - - - - - -
28/02:00am 14.8 NNW 7 13 1002.5 - 5.6 - - - - - - -
28/01:30am 15.4 NW 11 19 1002.3 - 5.6 - - - - - - -
28/01:05am 15.5 NW 21 31 1002.1 - 5.6 - - - - - - -
28/01:00am 15.6 NW 24 32 1001.8 - 5.6 - - - - - - -
28/12:42am 15.5 NW 26 41 1001.7 - 5.6 - - - - - - -
28/12:40am 15.6 NW 25 41 1001.6 - 5.6 - - - - - - -
28/12:30am 15.7 WNW 24 37 1002.2 - 5.6 - - - - - - -
28/12:29am 15.7 WNW 25 37 1002.1 - 5.6 - - - - - - -
28/12:27am 15.6 WNW 26 37 1002.0 - 5.6 - - - - - - -
28/12:00am 15.7 WNW 32 44 1000.9 - 5.6 - - - - - - -
 
Date/Time
EDT
Temp
°C
Wind Pressure Rain since
9am
mm
Weather Cloud Vis
km
Sea
Height
m
Swell
Dir  Spd
kts
Gust
kts
hPa Trend Height
m
Period
s
Dir
27/11:30pm 15.7 WNW 29 39 1001.1 - 5.6 - - - - - - -
27/11:00pm 15.8 WNW 29 40 1001.5 - 5.6 - - - - - - -
27/10:30pm 15.7 WNW 22 36 1001.5 - 5.6 - - - - - - -
27/10:23pm 15.7 WNW 21 31 1001.7 - 5.6 - - - - - - -
27/10:00pm 15.7 NW 19 26 1001.7 - 5.6 - - - - - - -
27/09:38pm 16.2 WNW 15 25 1001.2 - 5.6 - - - - - - -
27/09:30pm 16.3 WNW 16 24 1001.1 - 5.6 - - - - - - -
27/09:00pm 16.5 WNW 20 31 1001.2 - 5.6 - - - - - - -
27/08:44pm 16.3 NW 16 29 1000.6 - 5.6 - - - - - - -
27/08:30pm 16.2 WNW 23 31 1000.1 - 5.6 - - - - - - -
27/08:22pm 16.1 WNW 21 31 999.7 - 5.6 - - - - - - -
27/08:00pm 15.7 NW 16 26 999.8 - 5.6 - - - - - - -
27/07:57pm 15.7 NW 15 26 999.8 - 5.6 - - - - - - -
27/07:30pm 16.0 NW 22 28 999.0 - 5.6 - - - - - - -
27/07:00pm 15.9 NW 23 29 998.1 - 5.6 - - - - - - -
27/06:32pm 15.6 NW 17 29 998.3 - 5.6 - - - - - - -
27/06:30pm 15.6 WNW 17 25 998.3 - 5.6 - - - - - - -
27/06:13pm 16.0 WNW 15 23 998.2 - 5.6 - - - - - - -
27/06:00pm 16.0 N 7 12 998.1 - 5.6 - - - - - - -
27/05:30pm 14.7 WNW 11 17 998.2 - 5.6 - - - - - - -
27/05:00pm 14.4 NW 13 22 997.7 - 5.6 - - - - - - -
27/04:34pm 13.8 WNW 20 30 997.1 - 5.6 - - - - - - -
27/04:30pm 13.6 WNW 21 30 997.2 - 5.6 - - - - - - -
27/04:22pm 13.1 WNW 25 34 996.9 - 5.6 - - - - - - -
27/04:02pm 14.6 WNW 32 42 997.7 - 4.6 - - - - - - -
27/04:00pm 14.5 WNW 33 42 997.6 - 4.4 - - - - - - -
27/03:30pm 17.2 WNW 34 57 995.8 - 4.2 - - - - - - -
27/03:12pm 17.9 WNW 25 51 995.8 - 4.2 - - - - - - -
27/03:07pm 18.3 WNW 16 40 995.7 - 4.2 - - - - - - -
27/03:00pm 18.3 NW 13 21 995.9 - 4.2 Recent precip. - - - - - -
27/02:41pm 18.1 WNW 25 33 995.1 - 4.2 - - - - - - -
27/02:30pm 17.7 WNW 31 47 994.8 - 3.8 - - - - - - -
27/02:23pm 19.1 WNW 31 47 994.8 - 1.6 - - - - - - -
27/02:16pm 21.9 WNW 25 36 993.6 - 0.0 - - - - - - -
27/02:15pm 22.3 NW 25 35 993.5 - 0.0 - - - - - - -
27/02:04pm 26.0 NW 15 25 993.2 - 0.0 - - - - - - -
27/02:00pm 25.9 NNW 14 24 993.1 - 0.0 - - - - - - -
27/01:30pm 26.8 N 11 21 993.3 - 0.0 - - - - - - -
27/01:00pm 25.7 NNE 11 16 993.7 - 0.0 - - - - - - -
27/12:30pm 25.0 NNE 10 17 994.7 - 0.0 - - - - - - -
27/12:00pm 22.4 NNE 11 16 995.4 - 0.0 - - - - - - -
27/11:30am 21.9 N 8 11 996.8 - 0.0 - - - - - - -
27/11:00am 21.2 NNE 13 18 996.9 - 0.0 - - - - - - -
27/10:30am 20.8 NNE 12 18 997.7 - 0.0 - - - - - - -
27/10:00am 21.5 NNE 11 20 998.2 - 0.0 - - - - - - -
27/09:30am 21.5 NNE 11 18 999.3 - 0.0 - - - - - - -
27/09:00am 20.7 ENE 8 14 1000.2 - 0.0 - - - - - - -
27/08:30am 19.9 N 11 18 1000.6 - 0.0 - - - - - - -
27/08:00am 19.0 NNE 13 18 1001.2 - 0.0 - - - - - - -
27/07:30am 18.3 NNE 9 15 1001.7 - 0.0 - - - - - - -
27/07:00am 18.0 NNE 10 15 1002.0 - 0.0 - - - - - - -
27/06:30am 17.5 NNE 10 19 1002.6 - 0.0 - - - - - - -
27/06:00am 17.3 NNE 11 17 1003.3 - 0.0 - - - - - - -
27/05:30am 17.0 N 10 14 1003.8 - 0.0 - - - - - - -
27/05:00am 16.8 N 12 16 1003.9 - 0.0 - - - - - - -
27/04:30am 16.6 NNE 12 16 1004.5 - 0.0 - - - - - - -
27/04:00am 16.5 NNE 11 17 1005.2 - 0.0 - - - - - - -
27/03:30am 16.6 NNE 11 16 1006.0 - 0.0 - - - - - - -
27/03:00am 16.4 N 11 17 1006.3 - 0.0 - - - - - - -
27/02:30am 16.1 NNE 14 20 1006.8 - 0.0 - - - - - - -
27/02:00am 16.1 N 10 13 1007.7 - 0.0 - - - - - - -
27/01:30am 16.0 NNE 12 19 1008.1 - 0.0 - - - - - - -
27/01:00am 16.0 NNE 12 18 1008.7 - 0.0 - - - - - - -
27/12:30am 16.1 NNE 13 19 1009.5 - 0.0 - - - - - - -
27/12:00am 15.9 NNE 11 15 1010.1 - 0.0 - - - - - - -
 
Date/Time
EDT
Temp
°C
Wind Pressure Rain since
9am
mm
Weather Cloud Vis
km
Sea
Height
m
Swell
Dir  Spd
kts
Gust
kts
hPa Trend Height
m
Period
s
Dir
26/11:30pm 15.9 NNE 13 19 1010.6 - 0.0 - - - - - - -
26/11:00pm 15.8 NNE 11 17 1011.6 - 0.0 - - - - - - -
26/10:30pm 15.4 NNE 8 12 1012.2 - 0.0 - - - - - - -
26/10:00pm 15.1 NNW 7 9 1012.3 - 0.0 - - - - - - -
26/09:30pm 14.7 NNE 4 5 1012.7 - 0.0 - - - - - - -
26/09:00pm 14.8 NE 4 5 1012.9 - 0.0 - - - - - - -
26/08:30pm 14.9 NNE 3 4 1013.1 - 0.0 - - - - - - -
26/08:00pm 14.9 WNW 3 4 1013.3 - 0.0 - - - - - - -
26/07:30pm 15.4 NNW 5 6 1013.2 - 0.0 - - - - - - -
26/07:00pm 16.5 NW 5 6 1013.1 - 0.0 - - - - - - -
26/06:30pm 17.4 ESE 2 6 1013.1 - 0.0 - - - - - - -
26/06:00pm 17.5 ESE 9 12 1013.2 - 0.0 - - - - - - -
26/05:30pm 17.7 ESE 11 15 1013.5 - 0.0 - - - - - - -
26/05:00pm 17.8 SE 11 14 1013.6 - 0.0 - - - - - - -
26/04:30pm 18.6 ESE 9 13 1013.8 - 0.0 - - - - - - -
26/04:00pm 19.4 SE 9 11 1014.1 - 0.0 - - - - - - -
26/03:30pm 19.6 ESE 9 11 1014.2 - 0.0 - - - - - - -
26/03:00pm 19.5 SSE 8 10 1014.4 - 0.0 - - - - - - -
26/02:30pm 19.1 S 7 9 1014.6 - 0.0 - - - - - - -
26/02:00pm 19.4 S 7 9 1014.6 - 0.0 - - - - - - -
26/01:30pm 18.1 S 6 8 1014.9 - 0.0 - - - - - - -
26/01:00pm 17.4 S 6 7 1015.5 - 0.0 - - - - - - -
26/12:30pm 17.5 S 6 8 1015.9 - 0.0 - - - - - - -
26/12:00pm 19.4 S 6 8 1016.0 - 0.0 - - - - - - -
26/11:30am 18.3 SSE 6 8 1015.9 - 0.0 - - - - - - -
26/11:00am 17.1 S 4 6 1016.1 - 0.0 - - - - - - -
26/10:30am 16.3 S 3 5 1016.0 - 0.0 - - - - - - -
26/10:00am 16.3 W 3 5 1015.9 - 0.0 - - - - - - -
26/09:30am 16.2 WSW 2 4 1015.7 - 0.0 - - - - - - -
26/09:00am 15.8 WNW 4 4 1015.5 - 0.4 - - - - - - -
26/08:30am 15.3 NNW 4 6 1015.0 - 0.4 - - - - - - -
26/08:00am 15.1 N 6 8 1014.7 - 0.4 - - - - - - -
26/07:30am 14.8 N 7 8 1014.2 - 0.4 - - - - - - -
26/07:00am 14.8 N 7 9 1013.7 - 0.4 - - - - - - -
26/06:30am 14.8 N 7 8 1013.5 - 0.4 - - - - - - -
26/06:00am 14.7 N 5 6 1013.3 - 0.4 - - - - - - -
26/05:30am 14.4 W 3 4 1013.5 - 0.4 - - - - - - -
26/05:00am 14.0 NNW 5 6 1013.5 - 0.4 - - - - - - -
26/04:30am 14.5 WNW 3 4 1013.6 - 0.4 - - - - - - -
26/04:00am 14.5 WNW 3 5 1013.6 - 0.4 - - - - - - -
26/03:30am 14.7 NW 2 4 1013.8 - 0.4 - - - - - - -
26/03:00am 14.8 NW 2 4 1013.8 - 0.4 - - - - - - -

Other Formats:

Comma delimited format used in spreadsheet applications
http://www.bom.gov.au/fwo/IDT60701/IDT60701.95967.axf

JavaScript Object Notation format (JSON) in row-major order
http://www.bom.gov.au/fwo/IDT60701/IDT60701.95967.json